Time;durP1;ratioP1;P1;durP2;ratioP2;P2;SDS_P1;SDS_P2;PMS_P1;PMS_P2;Temp;Humidity;BMP_temperature;BMP_pressure;BME280_temperature;BME280_humidity;BME280_pressure;Samples;Min_cycle;Max_cycle;Signal;HPM_P1;HPM_P2
2022/06/10 00:00:57;;;;;;;8.35;2.90;;;;;;;11.89;94.14;101379.75;6041946;28;20496;-65
2022/06/10 00:03:53;;;;;;;4.30;2.55;;;;;;;11.89;93.95;101378.91;6029023;28;20037;-65
2022/06/10 00:06:48;;;;;;;6.07;2.97;;;;;;;11.77;94.20;101386.16;6033117;28;20042;-65
2022/06/10 00:09:43;;;;;;;5.67;2.60;;;;;;;11.65;94.57;101381.91;6037012;28;20125;-65
2022/06/10 00:12:39;;;;;;;5.17;2.83;;;;;;;11.74;94.83;101391.75;6028493;28;20277;-65
2022/06/10 00:15:34;;;;;;;6.40;2.70;;;;;;;11.97;95.46;101394.16;6026270;28;20398;-65
2022/06/10 00:18:31;;;;;;;5.82;2.78;;;;;;;11.89;94.57;101389.53;6027616;28;20274;-65
2022/06/10 00:21:27;;;;;;;7.68;2.72;;;;;;;11.89;94.55;101390.38;6011437;28;20039;-65
2022/06/10 00:24:22;;;;;;;5.68;2.75;;;;;;;11.93;94.46;101390.91;6026987;28;20392;-65
2022/06/10 00:27:18;;;;;;;5.00;2.80;;;;;;;11.71;94.19;101402.63;6027828;28;20041;-65
2022/06/10 00:30:16;;;;;;;7.70;2.65;;;;;;;11.73;94.66;101406.03;6027530;28;20037;-65
2022/06/10 00:33:12;;;;;;;10.43;2.65;;;;;;;11.60;94.68;101410.72;6028113;28;20058;-65
2022/06/10 00:36:09;;;;;;;6.28;2.58;;;;;;;11.53;94.70;101403.41;6027282;28;20042;-65
2022/06/10 00:39:04;;;;;;;4.72;2.83;;;;;;;11.51;95.13;101416.81;6037043;28;20038;-65
2022/06/10 00:42:04;;;;;;;7.97;3.00;;;;;;;11.51;95.36;101419.47;6026507;28;20038;-65
2022/06/10 00:44:59;;;;;;;6.53;2.60;;;;;;;11.48;95.32;101418.91;6027777;28;20117;-65
2022/06/10 00:47:54;;;;;;;6.40;3.10;;;;;;;11.44;95.45;101415.66;6017017;28;20030;-65
2022/06/10 00:50:50;;;;;;;5.73;2.77;;;;;;;11.31;95.58;101410.59;6026560;28;20039;-65
2022/06/10 00:53:47;;;;;;;5.10;3.10;;;;;;;11.35;95.41;101412.03;6028667;28;20526;-65
2022/06/10 00:56:46;;;;;;;6.00;2.58;;;;;;;11.66;95.70;101410.16;6025907;28;20639;-65
2022/06/10 00:59:44;;;;;;;4.90;2.55;;;;;;;11.81;95.09;101416.81;6026699;28;20034;-65
2022/06/10 01:02:40;;;;;;;7.97;2.65;;;;;;;11.93;93.91;101418.34;6025993;28;20034;-65
2022/06/10 01:05:35;;;;;;;5.68;2.75;;;;;;;12.08;93.10;101418.81;6023908;28;20037;-65
2022/06/10 01:08:30;;;;;;;5.67;3.10;;;;;;;11.83;92.31;101422.81;6019645;28;20128;-65
2022/06/10 01:11:50;;;;;;;5.32;2.65;;;;;;;11.72;91.98;101428.25;6026294;28;20034;-65
2022/06/10 01:14:48;;;;;;;4.43;2.80;;;;;;;11.68;92.43;101429.47;6025197;28;20037;-65
2022/06/10 01:18:17;;;;;;;5.93;2.60;;;;;;;12.00;92.57;101434.59;6027411;28;20113;-65
2022/06/10 01:21:29;;;;;;;5.70;2.80;;;;;;;12.11;91.01;101426.50;6020049;28;20155;-65
2022/06/10 01:24:37;;;;;;;9.18;2.88;;;;;;;12.31;90.91;101427.38;6025256;28;20030;-65
2022/06/10 01:27:48;;;;;;;5.00;2.30;;;;;;;11.96;90.69;101443.00;6026178;28;20042;-65
2022/06/10 01:31:01;;;;;;;6.15;2.70;;;;;;;12.09;91.01;101432.94;6024975;28;20093;-65
2022/06/10 01:34:15;;;;;;;6.55;2.47;;;;;;;12.11;90.46;101441.59;6015681;28;20040;-65
2022/06/10 01:37:15;;;;;;;5.25;2.63;;;;;;;11.70;90.34;101439.97;6033042;28;20496;-65
2022/06/10 01:40:21;;;;;;;5.03;2.42;;;;;;;11.66;91.50;101441.22;6032559;28;20461;-65
2022/06/10 01:43:43;;;;;;;5.00;2.80;;;;;;;11.77;91.21;101433.97;6026627;28;20058;-65
2022/06/10 01:47:03;;;;;;;6.72;2.40;;;;;;;11.49;91.18;101449.81;6026674;28;20076;-65
2022/06/10 01:50:30;;;;;;;9.18;2.78;;;;;;;11.40;91.86;101456.75;6019187;28;20045;-65
2022/06/10 01:53:44;;;;;;;5.43;2.83;;;;;;;11.18;92.61;101452.47;6023068;28;20069;-65
2022/06/10 01:56:45;;;;;;;4.70;2.63;;;;;;;11.11;93.52;101450.47;6014861;28;20038;-65
2022/06/10 01:59:44;;;;;;;6.72;3.13;;;;;;;10.95;94.24;101445.59;6025602;28;20037;-65
2022/06/10 02:02:45;;;;;;;7.85;2.90;;;;;;;11.40;95.32;101446.13;6024645;28;20477;-65
2022/06/10 02:05:47;;;;;;;5.40;2.95;;;;;;;11.26;93.64;101449.13;6021254;28;20045;-65
2022/06/10 02:09:05;;;;;;;6.00;3.08;;;;;;;11.03;94.05;101453.78;6040574;28;20113;-65
2022/06/10 02:12:07;;;;;;;6.15;2.60;;;;;;;10.99;94.81;101462.13;6025046;28;20038;-65
2022/06/10 02:15:21;;;;;;;7.60;3.20;;;;;;;10.84;95.46;101466.06;6012728;28;20046;-65
2022/06/10 02:18:21;;;;;;;6.57;3.08;;;;;;;10.88;96.02;101460.38;6024530;28;20045;-65
2022/06/10 02:21:40;;;;;;;;;;;;;;;11.26;96.39;101475.69;6014868;28;20069;-65
2022/06/10 02:24:45;;;;;;;8.07;3.10;;;;;;;11.26;95.42;101473.03;6027225;28;19947;-65
2022/06/10 02:27:44;;;;;;;6.18;2.70;;;;;;;11.36;95.05;101477.41;6026345;28;20045;-65
2022/06/10 02:31:00;;;;;;;5.38;3.03;;;;;;;11.17;95.00;101481.81;6022713;28;20058;-65
2022/06/10 02:33:55;;;;;;;5.80;2.97;;;;;;;11.16;95.08;101472.16;6024301;28;20172;-65
2022/06/10 02:36:50;;;;;;;6.77;2.80;;;;;;;11.44;95.61;101490.03;6018860;28;20034;-65
2022/06/10 02:39:54;;;;;;;7.60;3.20;;;;;;;11.78;95.45;101483.50;6021746;28;20670;-65
2022/06/10 02:43:02;;;;;;;7.30;3.30;;;;;;;11.84;93.13;101479.47;6023466;28;20058;-65
2022/06/10 02:46:05;;;;;;;5.03;2.70;;;;;;;11.82;93.08;101474.28;6026401;28;20429;-65
2022/06/10 02:49:00;;;;;;;4.65;3.05;;;;;;;12.21;92.43;101485.00;6028443;28;20042;-65
2022/06/10 02:51:56;;;;;;;6.63;3.53;;;;;;;12.08;91.69;101479.09;6029870;28;20104;-65
2022/06/10 02:54:51;;;;;;;5.63;3.03;;;;;;;12.25;90.32;101478.44;6027742;28;20066;-65
2022/06/10 03:01:12;;;;;;;6.03;2.97;;;;;;;12.38;90.80;101487.00;6025172;28;20031;-65
2022/06/10 03:04:31;;;;;;;6.82;2.83;;;;;;;12.48;89.72;101480.69;6030409;28;20035;-65
2022/06/10 03:07:43;;;;;;;6.60;3.10;;;;;;;12.51;89.14;101482.22;6028480;28;20038;-67
2022/06/10 03:10:48;;;;;;;7.93;2.60;;;;;;;12.55;89.78;101489.78;6027455;28;20042;-65
2022/06/10 03:14:12;;;;;;;5.45;3.03;;;;;;;12.51;89.34;101491.06;6028296;28;20034;-65
2022/06/10 03:17:14;;;;;;;7.22;3.38;;;;;;;12.40;90.31;101491.19;6029022;28;20045;-65
2022/06/10 03:20:20;;;;;;;4.78;3.05;;;;;;;12.29;90.30;101482.50;6051555;28;20493;-65
2022/06/10 03:23:42;;;;;;;5.90;3.10;;;;;;;12.24;90.86;101495.38;6048607;28;21876;-65
2022/06/10 03:27:02;;;;;;;5.55;2.72;;;;;;;12.16;91.21;101500.53;6044566;28;20109;-65
2022/06/10 03:30:06;;;;;;;6.72;3.42;;;;;;;11.99;92.19;101506.50;6028786;28;20496;-65
2022/06/10 03:33:09;;;;;;;8.85;3.85;;;;;;;12.18;92.63;101509.19;6025318;28;20093;-65
2022/06/10 03:36:08;;;;;;;9.40;3.50;;;;;;;12.03;92.94;101505.25;6027706;28;20054;-65
2022/06/10 03:39:05;;;;;;;6.80;3.22;;;;;;;12.09;93.09;101512.69;6027717;28;20104;-65
2022/06/10 03:42:09;;;;;;;6.18;3.05;;;;;;;12.06;92.77;101494.34;6028751;28;20027;-65
2022/06/10 03:45:05;;;;;;;9.10;3.72;;;;;;;12.16;92.53;101505.84;6025888;28;20042;-65
2022/06/10 03:48:01;;;;;;;6.57;3.95;;;;;;;12.15;92.43;101504.19;6026048;28;20037;-65
2022/06/10 03:50:56;;;;;;;5.80;3.40;;;;;;;12.03;93.18;101507.91;6028860;28;20042;-65
2022/06/10 03:53:52;;;;;;;7.07;3.90;;;;;;;12.04;93.53;101514.94;6029095;28;20409;-65
2022/06/10 03:56:47;;;;;;;7.75;3.97;;;;;;;12.18;93.89;101525.16;6027459;28;20548;-65
2022/06/10 03:59:43;;;;;;;8.77;4.28;;;;;;;12.12;93.94;101523.06;6028603;28;20030;-65
2022/06/10 04:02:39;;;;;;;10.10;4.25;;;;;;;12.34;94.59;101517.50;6024601;28;20523;-65
2022/06/10 04:05:34;;;;;;;9.07;5.03;;;;;;;12.34;93.49;101517.50;6021235;28;20065;-65
2022/06/10 04:08:29;;;;;;;7.57;4.20;;;;;;;12.50;93.20;101528.47;6029324;28;20304;-65
2022/06/10 04:11:25;;;;;;;7.67;4.03;;;;;;;12.47;92.93;101534.88;6020310;28;20129;-65
2022/06/10 04:14:20;;;;;;;9.30;4.40;;;;;;;12.54;92.25;101537.81;6030426;28;20030;-67
2022/06/10 04:17:15;;;;;;;8.30;4.35;;;;;;;12.55;92.35;101537.69;6033428;28;20121;-65
2022/06/10 04:20:19;;;;;;;8.40;4.43;;;;;;;12.68;91.83;101548.06;6044039;28;20034;-65
2022/06/10 04:23:15;;;;;;;6.63;4.90;;;;;;;13.04;91.48;101543.88;6034899;28;20426;-65
2022/06/10 04:26:10;;;;;;;7.60;3.53;;;;;;;13.08;91.38;101548.78;6027438;28;20077;-65
2022/06/10 04:29:06;;;;;;;7.53;3.70;;;;;;;13.71;87.84;101546.41;6028421;28;20394;-65
2022/06/10 04:32:01;;;;;;;7.90;3.27;;;;;;;14.17;86.94;101549.00;6017698;28;20034;-65
2022/06/10 04:34:56;;;;;;;5.40;2.80;;;;;;;14.43;84.26;101545.69;6027474;28;20634;-65
2022/06/10 04:37:52;;;;;;;4.97;2.67;;;;;;;15.29;82.21;101561.81;6026936;28;20045;-65
2022/06/10 04:40:48;;;;;;;8.35;3.10;;;;;;;14.56;81.04;101562.16;6029885;28;20034;-65
2022/06/10 04:43:43;;;;;;;7.75;3.20;;;;;;;15.03;80.57;101560.13;6028060;28;20359;-65
2022/06/10 04:46:41;;;;;;;5.50;2.90;;;;;;;15.42;78.26;101556.91;6027818;28;20169;-65
2022/06/10 04:49:36;;;;;;;5.40;2.85;;;;;;;15.77;78.32;101549.78;6027999;28;20400;-65
2022/06/10 04:52:33;;;;;;;5.80;2.90;;;;;;;16.20;75.73;101560.34;6025863;28;20470;-65
2022/06/10 04:55:29;;;;;;;5.70;2.45;;;;;;;16.65;74.42;101571.59;6026177;28;20463;-66
2022/06/10 04:58:24;;;;;;;6.27;2.37;;;;;;;17.48;71.92;101566.91;6019742;28;20039;-66
2022/06/10 05:01:19;;;;;;;6.97;2.57;;;;;;;17.94;68.72;101568.00;6030327;28;20041;-66
2022/06/10 05:04:15;;;;;;;6.00;2.70;;;;;;;18.08;68.29;101569.13;6027553;28;20105;-66
2022/06/10 05:07:10;;;;;;;5.93;2.87;;;;;;;18.02;68.67;101567.16;6025845;28;20027;-66
2022/06/10 05:10:06;;;;;;;6.57;2.80;;;;;;;18.08;67.46;101574.50;6025701;28;20042;-66
2022/06/10 05:13:01;;;;;;;3.95;2.20;;;;;;;18.09;68.36;101570.81;6027498;28;20109;-66
2022/06/10 05:15:56;;;;;;;5.38;2.88;;;;;;;18.20;68.23;101567.75;6026658;28;20429;-66
2022/06/10 05:18:52;;;;;;;5.80;3.10;;;;;;;18.93;65.19;101571.72;6027053;28;20030;-65
2022/06/10 05:21:47;;;;;;;5.80;3.38;;;;;;;18.42;66.86;101580.41;6025205;28;20038;-66
2022/06/10 05:24:43;;;;;;;6.07;3.30;;;;;;;18.24;66.99;101577.09;6027020;28;20030;-66
2022/06/10 05:27:38;;;;;;;8.30;3.57;;;;;;;18.19;68.03;101580.31;6017382;28;20045;-65
2022/06/10 05:30:34;;;;;;;7.07;3.45;;;;;;;18.83;65.40;101581.03;6013468;28;20034;-66
2022/06/10 05:34:44;;;;;;;8.77;3.35;;;;;;;19.24;64.66;101574.28;6020242;28;20041;-66
2022/06/10 05:36:46;;;;;;;6.85;4.05;;;;;;;19.05;64.37;101571.28;6024258;28;20034;-65
2022/06/10 05:39:41;;;;;;;6.30;3.80;;;;;;;18.62;66.66;101578.97;6017432;28;20092;-65
2022/06/10 05:42:36;;;;;;;7.27;3.80;;;;;;;18.74;67.77;101585.63;6033325;28;20042;-65
2022/06/10 05:45:32;;;;;;;8.82;3.70;;;;;;;20.02;63.69;101577.41;6018235;28;20038;-65
2022/06/10 05:48:27;;;;;;;6.18;3.70;;;;;;;20.09;61.23;101572.09;6021107;28;20026;-65
2022/06/10 05:51:22;;;;;;;5.67;4.23;;;;;;;19.84;63.64;101576.13;6025514;28;20045;-65
2022/06/10 05:54:18;;;;;;;10.40;4.30;;;;;;;20.46;62.04;101581.94;6026017;28;20042;-65
2022/06/10 05:57:15;;;;;;;9.95;5.22;;;;;;;20.40;61.08;101585.38;6021362;28;20076;-65
2022/06/10 06:00:16;;;;;;;8.40;4.65;;;;;;;21.13;58.17;101586.00;6025952;28;20034;-65
2022/06/10 06:03:11;;;;;;;9.82;5.30;;;;;;;20.08;60.74;101597.38;6026363;28;20039;-65
2022/06/10 06:06:08;;;;;;;10.37;5.13;;;;;;;20.27;61.63;101590.63;6026288;28;20377;-65
2022/06/10 06:09:04;;;;;;;8.45;4.80;;;;;;;20.85;59.79;101595.00;6025210;28;20401;-65
2022/06/10 06:11:59;;;;;;;10.93;5.70;;;;;;;20.56;58.96;101587.84;6025661;28;20037;-65
2022/06/10 06:14:54;;;;;;;12.67;5.30;;;;;;;20.64;60.39;101596.69;6026441;28;20042;-65
2022/06/10 06:17:51;;;;;;;9.73;5.37;;;;;;;21.01;59.70;101597.50;6026234;28;20065;-66
2022/06/10 06:20:46;;;;;;;8.45;4.93;;;;;;;21.45;58.40;101599.97;6024065;28;20042;-66
2022/06/10 06:23:42;;;;;;;8.70;5.20;;;;;;;20.93;59.10;101601.13;6026137;28;20080;-65
2022/06/10 06:26:37;;;;;;;10.98;6.30;;;;;;;19.89;61.14;101598.78;6031139;28;20042;-65
2022/06/10 06:29:32;;;;;;;10.73;6.13;;;;;;;19.17;64.26;101610.16;6026267;28;20291;-65
2022/06/10 06:32:28;;;;;;;11.88;6.63;;;;;;;19.99;61.59;101596.63;6038417;28;20280;-65
2022/06/10 06:35:23;;;;;;;9.63;5.53;;;;;;;19.32;63.96;101598.44;6049401;28;20057;-65
2022/06/10 06:38:19;;;;;;;9.02;5.13;;;;;;;19.71;64.31;101606.34;6036175;28;20787;-65
2022/06/10 06:41:15;;;;;;;13.13;5.68;;;;;;;20.38;62.86;101609.00;6030650;28;20542;-66
2022/06/10 06:44:10;;;;;;;9.88;5.25;;;;;;;20.54;60.29;101595.31;6025971;28;20093;-65
2022/06/10 06:47:08;;;;;;;9.68;6.30;;;;;;;19.81;62.13;101616.88;6025736;28;20126;-65
2022/06/10 06:50:04;;;;;;;10.05;4.93;;;;;;;20.38;61.38;101599.06;6024345;28;20045;-65
2022/06/10 06:53:00;;;;;;;10.32;5.03;;;;;;;21.27;57.92;101609.41;6025854;28;20061;-65
2022/06/10 06:55:56;;;;;;;9.93;5.75;;;;;;;21.14;57.04;101598.50;6025685;28;20430;-65
2022/06/10 06:58:52;;;;;;;9.82;5.90;;;;;;;20.55;59.58;101603.19;6025871;28;20378;-65
2022/06/10 07:01:47;;;;;;;11.23;5.82;;;;;;;20.41;60.18;101614.81;6024911;28;20045;-65
2022/06/10 07:04:42;;;;;;;13.13;5.90;;;;;;;20.08;60.71;101619.75;6025862;28;20387;-65
2022/06/10 07:07:39;;;;;;;11.10;5.70;;;;;;;19.92;60.26;101611.03;6025960;28;20697;-65
2022/06/10 07:10:34;;;;;;;9.23;5.20;;;;;;;20.31;59.41;101605.38;6024849;28;20045;-65
2022/06/10 07:13:29;;;;;;;14.20;5.38;;;;;;;20.99;58.82;101613.84;6025771;28;20023;-65
2022/06/10 07:16:25;;;;;;;8.65;4.20;;;;;;;20.42;60.95;101612.97;6025590;28;20371;-64
2022/06/10 07:19:21;;;;;;;12.13;5.73;;;;;;;20.56;58.80;101609.44;6025609;28;20081;-65
2022/06/10 07:22:17;;;;;;;10.60;5.38;;;;;;;20.91;59.44;101619.38;6027311;28;20042;-65
2022/06/10 07:25:14;;;;;;;9.88;5.20;;;;;;;21.30;55.83;101611.72;6025102;28;20049;-65
2022/06/10 07:28:14;;;;;;;9.00;4.32;;;;;;;21.14;57.04;101609.28;6025695;28;20038;-66
2022/06/10 07:31:09;;;;;;;10.43;5.25;;;;;;;21.63;55.67;101609.28;6024622;28;20038;-65
2022/06/10 07:34:04;;;;;;;11.77;5.10;;;;;;;21.21;55.01;101614.72;6027954;28;20042;-66
2022/06/10 07:36:59;;;;;;;9.43;4.13;;;;;;;21.70;54.66;101609.31;6029682;28;20034;-66
2022/06/10 07:39:55;;;;;;;7.47;3.13;;;;;;;21.86;52.96;101615.28;6049724;28;20107;-66
2022/06/10 07:42:50;;;;;;;8.97;3.20;;;;;;;21.56;52.05;101611.09;6052458;28;20037;-65
2022/06/10 07:45:46;;;;;;;7.40;4.32;;;;;;;21.97;53.19;101607.66;6052909;28;20030;-66
2022/06/10 07:48:42;;;;;;;8.98;3.88;;;;;;;22.58;51.06;101609.44;6053091;28;20034;-65
2022/06/10 07:51:38;;;;;;;4.35;2.50;;;;;;;22.71;47.48;101612.22;6034056;28;20045;-66
2022/06/10 07:54:34;;;;;;;8.45;2.70;;;;;;;22.44;48.10;101605.84;6028960;28;20158;-65
2022/06/10 07:57:29;;;;;;;8.30;2.63;;;;;;;22.83;45.64;101607.84;6029375;28;20482;-65
2022/06/10 08:00:26;;;;;;;5.40;2.27;;;;;;;22.97;45.23;101608.72;6028251;28;20038;-66
2022/06/10 08:03:21;;;;;;;9.10;2.60;;;;;;;22.86;44.34;101601.19;6029161;28;20027;-66
2022/06/10 08:06:18;;;;;;;5.93;2.43;;;;;;;23.06;44.92;101607.50;6029116;28;20038;-65
2022/06/10 08:09:14;;;;;;;4.80;1.92;;;;;;;22.94;44.80;101599.16;6028770;28;20027;-66
2022/06/10 08:12:09;;;;;;;4.65;2.58;;;;;;;22.66;46.43;101605.75;6027070;28;20030;-65
2022/06/10 08:15:05;;;;;;;7.60;2.70;;;;;;;22.17;47.58;101611.31;6028666;28;20092;-66
2022/06/10 08:18:01;;;;;;;6.53;2.67;;;;;;;22.58;46.40;101608.59;6029296;28;20300;-65
2022/06/10 08:24:12;;;;;;;6.90;2.00;;;;;;;22.98;44.42;101610.41;6028708;28;20038;-66
2022/06/10 08:27:08;;;;;;;7.00;2.30;;;;;;;22.92;43.90;101608.50;6028307;28;20502;-65
2022/06/10 08:30:06;;;;;;;6.47;2.23;;;;;;;22.57;43.23;101617.72;6027680;28;20034;-65
2022/06/10 08:33:05;;;;;;;7.35;2.63;;;;;;;22.80;44.33;101610.16;6028362;28;20490;-66
2022/06/10 08:36:01;;;;;;;5.10;2.38;;;;;;;22.61;46.32;101602.78;6027868;28;20033;-66
2022/06/10 08:38:56;;;;;;;8.20;2.50;;;;;;;22.94;43.80;101603.72;6040614;28;20034;-66
2022/06/10 08:42:08;;;;;;;4.37;1.90;;;;;;;22.94;42.56;101614.53;6019805;28;20104;-66
2022/06/10 08:45:43;;;;;;;5.80;2.40;;;;;;;22.63;42.85;101603.41;6025769;28;20296;-65
2022/06/10 08:48:56;;;;;;;6.50;2.22;;;;;;;22.49;43.91;101600.66;6015719;28;20468;-66
2022/06/10 08:52:04;;;;;;;6.53;2.70;;;;;;;22.51;44.76;101593.16;6025891;28;20124;-66
2022/06/10 08:55:47;;;;;;;4.68;2.00;;;;;;;23.32;42.50;101607.50;6033632;28;20053;-66
2022/06/10 08:59:12;;;;;;;13.20;2.33;;;;;;;23.21;41.48;101607.31;6010431;28;20128;-65
2022/06/10 09:02:16;;;;;;;5.95;1.92;;;;;;;23.34;42.01;101591.91;6021583;28;20038;-66
2022/06/10 09:05:29;;;;;;;6.63;2.13;;;;;;;23.42;41.50;101602.56;6027056;28;20106;-66
2022/06/10 09:08:30;;;;;;;4.38;2.30;;;;;;;23.28;42.03;101595.44;6025891;28;20419;-65
2022/06/10 09:11:33;;;;;;;6.15;1.83;;;;;;;23.31;41.43;101594.19;6015768;28;20034;-66
2022/06/10 09:14:29;;;;;;;4.78;1.90;;;;;;;23.54;43.25;101590.06;6026296;28;20197;-65
2022/06/10 09:17:24;;;;;;;5.40;1.85;;;;;;;23.59;42.65;101592.97;6027407;28;20412;-66
2022/06/10 09:20:55;;;;;;;6.38;2.58;;;;;;;23.16;40.60;101588.13;6026764;28;20034;-66
2022/06/10 09:23:52;;;;;;;7.40;2.33;;;;;;;23.44;40.42;101586.94;6016017;28;21134;-66
2022/06/10 09:27:14;;;;;;;7.78;2.17;;;;;;;23.80;40.84;101597.34;6026833;28;20030;-65
2022/06/10 09:30:17;;;;;;;7.45;1.90;;;;;;;23.59;40.45;101589.44;6024835;28;20038;-66
2022/06/10 09:33:43;;;;;;;9.13;2.40;;;;;;;23.53;40.18;101580.28;6041779;28;20105;-65
2022/06/10 09:37:06;;;;;;;4.38;2.35;;;;;;;23.18;41.42;101586.91;6026297;28;20490;-66
2022/06/10 09:43:37;;;;;;;5.80;2.33;;;;;;;22.98;42.32;101584.19;6025520;28;20546;-66
2022/06/10 09:47:05;;;;;;;7.07;2.30;;;;;;;22.99;43.27;101595.84;6026543;28;20041;-64
2022/06/10 09:50:00;;;;;;;3.20;1.85;;;;;;;22.96;44.58;101593.53;6024981;28;20027;-66
2022/06/10 09:53:06;;;;;;;5.90;2.10;;;;;;;23.50;42.17;101587.97;6026170;28;20096;-66
2022/06/10 09:56:25;;;;;;;7.15;2.67;;;;;;;23.36;40.50;101589.81;6025123;28;20605;-65
2022/06/10 09:59:46;;;;;;;3.95;1.90;;;;;;;24.10;39.04;101590.41;6026459;28;20031;-65
2022/06/10 10:03:06;;;;;;;6.28;2.45;;;;;;;23.72;39.34;101591.28;6025904;28;20042;-66
2022/06/10 10:06:05;;;;;;;4.43;1.90;;;;;;;23.57;39.42;101570.69;6026564;28;20057;-65
2022/06/10 10:09:27;;;;;;;7.03;2.42;;;;;;;23.95;40.56;101572.69;6026368;28;20026;-65
2022/06/10 10:12:47;;;;;;;6.53;2.50;;;;;;;24.22;40.04;101564.28;6024574;28;20777;-66
2022/06/10 10:16:11;;;;;;;5.90;2.10;;;;;;;24.25;38.60;101573.88;6026165;28;20029;-66
2022/06/10 10:19:35;;;;;;;6.75;1.90;;;;;;;23.60;39.33;101578.38;6025087;28;20088;-66
2022/06/10 10:22:47;;;;;;;5.60;1.88;;;;;;;23.62;39.88;101576.28;6035437;28;20038;-66
2022/06/10 10:25:47;;;;;;;4.82;1.85;;;;;;;23.69;38.32;101571.72;6024845;28;20162;-65
2022/06/10 10:28:44;;;;;;;6.60;1.83;;;;;;;23.70;39.34;101557.09;6024495;28;20141;-66
2022/06/10 10:31:46;;;;;;;8.05;1.77;;;;;;;23.18;39.46;101567.97;6025229;28;20041;-66
2022/06/10 10:34:45;;;;;;;6.60;2.15;;;;;;;23.17;41.12;101566.28;6024702;28;20034;-65
2022/06/10 10:37:58;;;;;;;8.07;1.83;;;;;;;24.11;38.67;101554.09;6024499;28;20038;-65
2022/06/10 10:40:54;;;;;;;6.55;2.22;;;;;;;24.18;39.01;101554.94;6025085;28;20042;-66
2022/06/10 10:43:52;;;;;;;6.32;1.77;;;;;;;24.34;37.41;101563.63;6024715;28;20030;-65
2022/06/10 10:46:58;;;;;;;6.63;1.70;;;;;;;24.72;35.69;101567.19;6024481;28;20038;-65
2022/06/10 10:50:05;;;;;;;7.63;2.00;;;;;;;24.78;36.48;101556.28;6027793;28;20038;-65
2022/06/10 10:53:06;;;;;;;3.72;1.58;;;;;;;24.66;35.82;101551.75;6025423;28;20030;-65
2022/06/10 10:56:03;;;;;;;3.83;1.40;;;;;;;24.75;36.70;101545.88;6024279;28;20037;-66
2022/06/10 10:58:59;;;;;;;4.03;1.80;;;;;;;24.63;38.40;101541.34;6024095;28;20097;-65
2022/06/10 11:01:55;;;;;;;3.85;1.50;;;;;;;24.47;38.39;101558.13;6024454;28;20042;-65
2022/06/10 11:04:50;;;;;;;5.45;2.33;;;;;;;24.25;37.82;101549.47;6024147;28;20463;-66
2022/06/10 11:07:46;;;;;;;3.20;1.47;;;;;;;24.45;37.19;101539.38;6025675;28;20042;-65
2022/06/10 11:11:00;;;;;;;5.80;1.55;;;;;;;24.97;35.64;101538.25;6029346;28;20269;-66
2022/06/10 11:13:59;;;;;;;4.78;1.70;;;;;;;25.96;36.40;101533.53;6029893;28;20166;-66
2022/06/10 11:17:03;;;;;;;5.78;1.95;;;;;;;25.77;36.83;101545.47;6029787;28;20172;-66
2022/06/10 11:20:01;;;;;;;5.63;1.90;;;;;;;25.66;37.00;101543.47;6028224;28;20486;-65
2022/06/10 11:23:11;;;;;;;7.75;2.10;;;;;;;25.26;37.46;101550.31;6037673;28;20029;-66
2022/06/10 11:26:17;;;;;;;3.55;1.63;;;;;;;24.73;38.00;101541.72;6029726;28;20035;-66
2022/06/10 11:29:12;;;;;;;4.43;2.00;;;;;;;24.61;40.56;101538.03;6029743;28;20043;-65
2022/06/10 11:32:18;;;;;;;4.93;1.63;;;;;;;23.98;40.51;101553.28;6028961;28;20037;-65
2022/06/10 11:35:34;;;;;;;;;;;;;;;23.89;40.68;101554.59;6029778;28;20058;-66
2022/06/10 11:38:32;;;;;;;8.02;2.03;;;;;;;23.75;43.45;101558.38;6037133;28;20280;-66
2022/06/10 11:41:31;;;;;;;4.22;1.83;;;;;;;23.71;42.28;101566.06;6027463;28;20041;-66
2022/06/10 11:44:29;;;;;;;5.47;2.10;;;;;;;23.68;42.82;101545.66;6029554;28;20034;-66
2022/06/10 11:47:30;;;;;;;8.68;1.95;;;;;;;24.06;42.95;101536.78;6028071;28;20105;-66
2022/06/10 11:50:31;;;;;;;6.60;2.35;;;;;;;24.42;42.02;101541.69;6027762;28;20077;-66
2022/06/10 11:53:49;;;;;;;4.32;1.80;;;;;;;24.39;41.38;101545.66;6028219;28;20042;-66
2022/06/10 12:00:49;;;;;;;6.30;2.17;;;;;;;24.57;42.21;101542.25;6028434;28;20474;-66
2022/06/10 12:03:59;;;;;;;4.85;2.10;;;;;;;24.90;41.91;101536.59;6029071;28;20034;-66
2022/06/10 12:07:00;;;;;;;4.10;2.38;;;;;;;25.02;41.75;101529.44;6027986;28;20076;-66
2022/06/10 12:09:58;;;;;;;5.65;2.00;;;;;;;24.75;42.18;101528.75;6028868;28;20093;-66
2022/06/10 12:12:55;;;;;;;6.60;2.17;;;;;;;24.58;42.22;101533.88;6027157;28;20029;-66
2022/06/10 12:15:54;;;;;;;4.10;2.15;;;;;;;24.61;41.98;101540.75;6027733;28;20038;-67
2022/06/10 12:18:50;;;;;;;6.03;2.50;;;;;;;24.90;42.39;101528.47;6028377;28;20558;-66
2022/06/10 12:21:45;;;;;;;6.90;2.53;;;;;;;24.70;42.88;101532.13;6028125;28;20057;-66
2022/06/10 12:24:42;;;;;;;6.75;2.10;;;;;;;24.81;42.42;101534.16;6027066;28;20648;-67
2022/06/10 12:27:48;;;;;;;4.97;2.03;;;;;;;25.17;41.62;101519.06;6026621;28;20040;-66
2022/06/10 12:30:48;;;;;;;4.97;2.10;;;;;;;25.00;40.54;101528.81;6037979;28;20053;-66
2022/06/10 12:33:49;;;;;;;7.28;2.10;;;;;;;24.56;41.32;101521.56;6028828;28;20088;-66
2022/06/10 12:36:51;;;;;;;6.35;1.88;;;;;;;24.39;43.01;101515.81;6028204;28;20109;-66
2022/06/10 12:39:57;;;;;;;4.70;2.17;;;;;;;24.53;41.34;101520.13;6045801;28;20026;-66
2022/06/10 12:42:57;;;;;;;6.55;1.83;;;;;;;23.74;43.38;101514.19;6051211;28;20025;-66
2022/06/10 12:45:56;;;;;;;5.15;1.77;;;;;;;23.93;44.32;101502.44;6050176;28;20467;-66
2022/06/10 12:48:52;;;;;;;4.13;1.73;;;;;;;24.53;43.34;101511.16;6029143;28;20096;-66
2022/06/10 12:52:00;;;;;;;5.18;2.03;;;;;;;24.59;42.71;101507.56;6027239;28;20030;-66
2022/06/10 12:55:20;;;;;;;6.82;1.77;;;;;;;25.26;41.82;101507.69;6027766;28;20050;-65
2022/06/10 12:58:37;;;;;;;4.95;2.20;;;;;;;26.09;38.56;101505.34;6027528;28;20066;-66
2022/06/10 13:01:32;;;;;;;4.50;1.65;;;;;;;26.02;42.03;101500.00;6027154;28;20584;-66
2022/06/10 13:04:28;;;;;;;6.00;2.30;;;;;;;26.12;40.36;101501.38;6031665;28;20030;-66
2022/06/10 13:07:30;;;;;;;7.25;1.77;;;;;;;25.96;40.05;101508.22;6027584;28;20641;-65
2022/06/10 13:10:29;;;;;;;5.97;2.17;;;;;;;25.56;39.33;101502.41;6025468;28;20101;-66
2022/06/10 13:13:25;;;;;;;3.92;1.90;;;;;;;25.06;41.28;101498.09;6023920;28;20034;-66
2022/06/10 13:16:34;;;;;;;6.72;2.28;;;;;;;25.09;41.44;101505.75;6024749;28;20453;-66
2022/06/10 13:19:37;;;;;;;9.43;2.20;;;;;;;25.16;41.35;101493.81;6035518;28;20205;-65
2022/06/10 13:22:36;;;;;;;6.45;2.75;;;;;;;25.22;42.21;101495.59;6023891;28;20065;-66
2022/06/10 13:25:31;;;;;;;9.77;2.00;;;;;;;25.16;41.51;101506.56;6023433;28;20041;-66
2022/06/10 13:28:27;;;;;;;5.10;2.00;;;;;;;25.52;40.44;101501.19;6023717;28;20046;-66
2022/06/10 13:31:26;;;;;;;8.88;2.20;;;;;;;25.19;40.88;101497.97;6025311;28;20600;-66
2022/06/10 13:34:30;;;;;;;5.32;1.80;;;;;;;25.14;41.26;101495.09;6047533;28;20108;-66
2022/06/10 13:37:29;;;;;;;8.43;2.05;;;;;;;25.35;42.33;101505.53;6034442;28;20422;-66
2022/06/10 13:40:26;;;;;;;6.20;1.90;;;;;;;25.20;41.84;101500.44;6045494;28;20501;-67
2022/06/10 13:43:27;;;;;;;4.55;1.75;;;;;;;24.95;42.32;101506.94;6047563;28;20034;-66
2022/06/10 13:46:29;;;;;;;10.32;2.08;;;;;;;25.11;42.80;101498.25;6045928;28;20076;-66
2022/06/10 13:49:51;;;;;;;6.43;2.47;;;;;;;25.16;42.32;101503.84;6045358;28;20092;-66
2022/06/10 13:52:53;;;;;;;7.05;2.17;;;;;;;24.83;42.10;101502.22;6044492;28;20042;-66
2022/06/10 13:55:55;;;;;;;4.80;1.58;;;;;;;24.48;44.10;101492.84;6023243;28;20394;-66
2022/06/10 13:58:52;;;;;;;5.70;1.67;;;;;;;24.51;45.02;101494.28;6023032;28;20034;-66
2022/06/10 14:01:50;;;;;;;6.25;2.20;;;;;;;25.13;44.12;101496.13;6022329;28;20528;-66
2022/06/10 14:04:46;;;;;;;4.82;2.10;;;;;;;25.51;42.06;101496.84;6023141;28;20042;-66
2022/06/10 14:07:41;;;;;;;6.28;2.35;;;;;;;24.93;42.97;101495.44;6031325;28;20393;-66
2022/06/10 14:10:45;;;;;;;6.53;1.93;;;;;;;25.25;42.99;101497.03;6038551;28;20065;-66
2022/06/10 14:13:53;;;;;;;4.57;1.60;;;;;;;25.59;39.98;101491.09;6022759;28;20704;-66
2022/06/10 14:17:17;;;;;;;3.70;1.42;;;;;;;25.54;43.51;101490.97;6026886;28;20466;-66